Time;durP1;ratioP1;P1;durP2;ratioP2;P2;SDS_P1;SDS_P2;PMS_P1;PMS_P2;Temp;Humidity;BMP_temperature;BMP_pressure;BME280_temperature;BME280_humidity;BME280_pressure;Samples;Min_cycle;Max_cycle;Signal;HPM_P1;HPM_P2
2021/09/27 00:00:52;;;;;;;0.40;0.25;;;14.50;99.90;;;;;;5030507;28;20706;-74
2021/09/27 00:03:19;;;;;;;0.40;0.20;;;14.50;99.90;;;;;;5030411;28;20486;-75
2021/09/27 00:05:45;;;;;;;0.40;0.20;;;14.50;99.90;;;;;;5012193;28;20448;-75
2021/09/27 00:08:10;;;;;;;0.40;0.20;;;14.40;99.90;;;;;;5044586;28;20385;-75
2021/09/27 00:10:47;;;;;;;0.40;0.20;;;14.40;99.90;;;;;;5050247;28;20374;-74
2021/09/27 00:13:14;;;;;;;0.40;0.20;;;14.40;99.90;;;;;;5050451;28;20385;-75
2021/09/27 00:15:48;;;;;;;0.40;0.20;;;14.30;99.90;;;;;;5050588;28;20877;-75
2021/09/27 00:18:16;;;;;;;0.40;0.30;;;14.40;99.90;;;;;;5050096;28;20497;-74
2021/09/27 00:20:46;;;;;;;0.40;0.30;;;14.40;99.90;;;;;;5050523;28;20389;-74
2021/09/27 00:23:12;;;;;;;0.40;0.20;;;14.30;99.90;;;;;;5050605;28;20400;-75
2021/09/27 00:25:39;;;;;;;0.40;0.30;;;14.30;99.90;;;;;;5050500;28;20381;-75
2021/09/27 00:28:05;;;;;;;0.40;0.30;;;14.30;99.90;;;;;;5034129;28;20395;-73
2021/09/27 00:30:32;;;;;;;0.40;0.20;;;14.20;99.90;;;;;;5053799;28;20382;-73
2021/09/27 00:32:58;;;;;;;0.40;0.20;;;14.20;99.90;;;;;;5053632;28;20374;-73
2021/09/27 00:35:28;;;;;;;0.40;0.30;;;14.20;99.90;;;;;;5053818;28;20409;-73
2021/09/27 00:37:55;;;;;;;0.40;0.30;;;14.20;99.90;;;;;;5053522;28;20397;-73
2021/09/27 00:40:27;;;;;;;0.40;0.20;;;14.20;99.90;;;;;;5035947;28;20462;-73
2021/09/27 00:42:54;;;;;;;0.40;0.30;;;14.30;99.90;;;;;;5053258;28;20859;-73
2021/09/27 00:45:24;;;;;;;0.40;0.30;;;14.30;99.90;;;;;;5053539;28;20534;-76
2021/09/27 00:47:50;;;;;;;0.40;0.20;;;14.20;99.90;;;;;;5053288;28;20412;-76
2021/09/27 00:50:19;;;;;;;0.40;0.20;;;14.10;99.90;;;;;;5053596;28;20381;-76
2021/09/27 00:52:45;;;;;;;0.40;0.25;;;14.20;99.90;;;;;;5053775;28;20381;-77
2021/09/27 00:55:14;;;;;;;0.40;0.20;;;14.20;99.90;;;;;;5053251;28;20431;-75
2021/09/27 00:57:41;;;;;;;0.40;0.30;;;14.20;99.90;;;;;;5053692;28;20401;-76
2021/09/27 01:00:10;;;;;;;0.40;0.20;;;14.10;99.90;;;;;;5052864;28;20747;-76
2021/09/27 01:02:36;;;;;;;0.40;0.20;;;14.10;99.90;;;;;;5053779;28;20464;-76
2021/09/27 01:05:06;;;;;;;0.40;0.20;;;14.00;99.90;;;;;;5052913;28;20481;-76
2021/09/27 01:11:21;;;;;;;0.40;0.20;;;14.00;99.90;;;;;;4965132;28;20434;-76
2021/09/27 01:14:08;;;;;;;0.40;0.30;;;13.90;99.90;;;;;;5033006;28;20493;-74
2021/09/27 01:16:40;;;;;;;0.40;0.20;;;14.00;99.90;;;;;;5033057;28;20605;-73
2021/09/27 01:19:27;;;;;;;0.40;0.30;;;14.10;99.90;;;;;;5032477;28;20780;-73
2021/09/27 01:21:57;;;;;;;0.40;0.20;;;14.10;99.90;;;;;;5014442;28;20925;-73
2021/09/27 01:24:42;;;;;;;0.40;0.20;;;14.00;99.90;;;;;;5032922;28;20383;-74
2021/09/27 01:27:16;;;;;;;0.40;0.20;;;14.10;99.90;;;;;;5032229;28;20827;-73
2021/09/27 01:30:06;;;;;;;0.40;0.20;;;14.00;99.90;;;;;;5032845;28;20379;-74
2021/09/27 01:32:53;;;;;;;0.40;0.30;;;14.00;99.90;;;;;;5032528;28;20387;-74
2021/09/27 01:36:00;;;;;;;0.40;0.20;;;14.00;99.90;;;;;;5032650;28;20407;-75
2021/09/27 01:38:34;;;;;;;0.40;0.20;;;14.00;99.90;;;;;;5024101;28;20498;-75
2021/09/27 01:41:00;;;;;;;0.40;0.20;;;13.90;99.90;;;;;;5031621;28;20380;-75
2021/09/27 01:43:31;;;;;;;0.40;0.30;;;14.00;99.90;;;;;;5032648;28;20744;-74
2021/09/27 01:46:23;;;;;;;0.40;0.30;;;14.00;99.90;;;;;;5031681;28;20910;-75
2021/09/27 01:49:04;;;;;;;0.40;0.30;;;14.00;99.90;;;;;;5032424;28;20390;-74
2021/09/27 01:51:37;;;;;;;0.40;0.20;;;13.90;99.90;;;;;;5032153;28;20437;-75
2021/09/27 01:54:16;;;;;;;0.40;0.30;;;13.90;99.90;;;;;;5031878;28;20395;-75
2021/09/27 01:56:50;;;;;;;0.40;0.30;;;13.90;99.90;;;;;;5032202;28;20411;-74
2021/09/27 01:59:40;;;;;;;0.40;0.20;;;13.90;99.90;;;;;;5032258;28;20391;-74
2021/09/27 02:02:14;;;;;;;0.40;0.30;;;13.80;99.90;;;;;;5031337;28;20394;-75
2021/09/27 02:04:45;;;;;;;0.40;0.20;;;13.70;99.90;;;;;;5032235;28;20406;-75
2021/09/27 02:07:12;;;;;;;0.40;0.30;;;13.70;99.90;;;;;;5037710;28;20996;-75
2021/09/27 02:10:07;;;;;;;0.40;0.30;;;13.80;99.90;;;;;;5052091;28;20405;-74
2021/09/27 02:12:44;;;;;;;0.40;0.30;;;13.70;99.90;;;;;;5038482;28;20402;-74
2021/09/27 02:15:26;;;;;;;0.40;0.20;;;13.70;99.90;;;;;;5051287;28;20481;-74
2021/09/27 02:18:24;;;;;;;0.40;0.30;;;13.70;99.90;;;;;;5051011;28;20392;-75
2021/09/27 02:20:56;;;;;;;0.40;0.20;;;13.60;99.90;;;;;;5046635;28;20866;-74
2021/09/27 02:23:33;;;;;;;0.40;0.30;;;13.60;99.90;;;;;;5034008;28;20765;-75
2021/09/27 02:25:59;;;;;;;0.40;0.22;;;13.70;99.90;;;;;;5050858;28;20762;-74
2021/09/27 02:28:26;;;;;;;0.40;0.20;;;13.60;99.90;;;;;;5051902;28;20377;-75
2021/09/27 02:31:14;;;;;;;0.70;0.70;;;13.50;99.90;;;;;;5051636;28;20378;-74
2021/09/27 02:33:57;;;;;;;0.40;0.20;;;13.40;99.90;;;;;;5051722;28;20731;-74
2021/09/27 02:36:48;;;;;;;0.40;0.30;;;13.40;99.90;;;;;;5051441;28;20765;-75
2021/09/27 02:39:30;;;;;;;0.40;0.30;;;13.40;99.90;;;;;;5051344;28;20389;-75
2021/09/27 02:45:18;;;;;;;0.40;0.28;;;13.40;99.90;;;;;;5050766;28;20500;-74
2021/09/27 02:47:52;;;;;;;0.40;0.30;;;13.40;99.90;;;;;;5051171;28;20381;-75
2021/09/27 02:50:26;;;;;;;0.40;0.30;;;13.40;99.90;;;;;;5051069;28;20726;-75
2021/09/27 02:52:53;;;;;;;0.40;0.25;;;13.40;99.90;;;;;;5050956;28;20381;-75
2021/09/27 02:55:22;;;;;;;0.40;0.30;;;13.50;99.90;;;;;;5051492;28;20426;-74
2021/09/27 02:58:42;;;;;;;0.40;0.20;;;13.50;99.90;;;;;;5051650;28;20385;-73
2021/09/27 03:01:44;;;;;;;0.40;0.20;;;13.30;99.90;;;;;;5050792;28;20389;-76
2021/09/27 03:04:16;;;;;;;0.40;0.30;;;13.30;99.90;;;;;;5050850;28;20377;-76
2021/09/27 03:10:32;;;;;;;0.60;0.60;;;13.30;99.90;;;;;;5030862;28;20469;-73
2021/09/27 03:13:30;;;;;;;0.40;0.20;;;13.20;99.90;;;;;;5031066;28;20402;-76
2021/09/27 03:16:15;;;;;;;0.40;0.20;;;13.30;99.90;;;;;;5030739;28;20910;-76
2021/09/27 03:18:53;;;;;;;0.40;0.20;;;13.30;99.90;;;;;;5031501;28;20787;-76
2021/09/27 03:21:40;;;;;;;0.40;0.20;;;13.30;99.90;;;;;;5030963;28;20383;-76
2021/09/27 03:24:05;;;;;;;0.40;0.20;;;13.30;99.90;;;;;;5030724;28;20391;-77
2021/09/27 03:26:37;;;;;;;0.40;0.30;;;13.20;99.90;;;;;;5013279;28;20399;-75
2021/09/27 03:32:50;;;;;;;0.40;0.30;;;13.30;99.90;;;;;;4969395;28;20752;-74
2021/09/27 03:35:55;;;;;;;0.40;0.20;;;13.20;99.90;;;;;;5027002;28;20415;-73
2021/09/27 03:38:30;;;;;;;0.40;0.20;;;13.10;99.90;;;;;;5028089;28;20414;-73
2021/09/27 03:41:18;;;;;;;0.40;0.30;;;13.10;99.90;;;;;;5031080;28;20383;-73
2021/09/27 03:44:02;;;;;;;0.40;0.20;;;13.10;99.90;;;;;;5012732;28;20394;-73
2021/09/27 03:47:00;;;;;;;0.90;0.70;;;13.10;99.90;;;;;;5030564;28;20411;-74
2021/09/27 03:49:37;;;;;;;0.40;0.20;;;13.00;99.90;;;;;;5030487;28;20383;-74
2021/09/27 03:52:08;;;;;;;0.40;0.30;;;13.00;99.90;;;;;;5030189;28;20380;-74
2021/09/27 03:54:47;;;;;;;0.40;0.30;;;13.10;99.90;;;;;;5030279;28;20445;-74
2021/09/27 03:57:18;;;;;;;0.40;0.30;;;13.00;99.90;;;;;;5030328;28;20461;-74
2021/09/27 03:59:58;;;;;;;0.40;0.20;;;13.10;99.90;;;;;;5030500;28;20888;-74
2021/09/27 04:02:40;;;;;;;0.40;0.30;;;12.90;99.90;;;;;;5032160;28;20716;-74
2021/09/27 04:05:24;;;;;;;0.40;0.30;;;12.90;99.90;;;;;;5034238;28;20390;-74
2021/09/27 04:08:21;;;;;;;0.40;0.20;;;12.80;99.90;;;;;;5046331;28;20415;-74
2021/09/27 04:11:05;;;;;;;0.40;0.30;;;12.80;99.90;;;;;;5054382;28;20382;-74
2021/09/27 04:13:34;;;;;;;0.40;0.20;;;12.80;99.90;;;;;;5054581;28;20373;-74
2021/09/27 04:16:28;;;;;;;0.40;0.20;;;12.90;99.90;;;;;;5053837;28;20401;-74
2021/09/27 04:19:16;;;;;;;0.40;0.30;;;13.00;99.90;;;;;;5054081;28;20382;-74
2021/09/27 04:22:14;;;;;;;0.40;0.20;;;12.90;99.90;;;;;;5036556;28;20393;-74
2021/09/27 04:25:11;;;;;;;0.40;0.30;;;13.00;99.90;;;;;;5054120;28;20873;-74
2021/09/27 04:27:48;;;;;;;0.50;0.50;;;12.90;99.90;;;;;;5053940;28;20781;-75
2021/09/27 04:30:43;;;;;;;0.40;0.30;;;12.90;99.90;;;;;;5053772;28;20395;-75
2021/09/27 04:33:12;;;;;;;0.40;0.20;;;12.80;99.90;;;;;;5053422;28;20971;-75
2021/09/27 04:35:57;;;;;;;0.40;0.20;;;12.90;99.90;;;;;;5054015;28;20411;-74
2021/09/27 04:38:23;;;;;;;0.40;0.30;;;12.80;99.90;;;;;;5053485;28;20386;-74
2021/09/27 04:40:57;;;;;;;0.40;0.20;;;12.80;99.90;;;;;;5054449;28;20722;-74
2021/09/27 04:43:53;;;;;;;0.40;0.20;;;12.80;99.90;;;;;;5053187;28;20454;-74
2021/09/27 04:46:38;;;;;;;0.40;0.20;;;12.80;99.90;;;;;;5035027;28;20463;-74
2021/09/27 04:49:34;;;;;;;0.40;0.30;;;12.80;99.90;;;;;;5053045;28;20420;-74
2021/09/27 04:52:23;;;;;;;0.40;0.30;;;12.70;99.90;;;;;;5053648;28;20461;-74
2021/09/27 04:54:54;;;;;;;0.40;0.20;;;12.70;99.90;;;;;;5035783;28;20459;-74
2021/09/27 04:57:26;;;;;;;0.40;0.30;;;12.70;99.90;;;;;;5053156;28;20394;-74
2021/09/27 05:00:16;;;;;;;0.50;0.50;;;12.60;99.90;;;;;;5053703;28;20404;-74
2021/09/27 05:02:59;;;;;;;0.40;0.30;;;12.60;99.90;;;;;;5053581;28;20388;-74
2021/09/27 05:05:54;;;;;;;0.40;0.20;;;12.60;99.90;;;;;;5052983;28;20451;-74
2021/09/27 05:08:50;;;;;;;0.40;0.30;;;12.60;99.90;;;;;;5037428;28;20387;-74
2021/09/27 05:11:54;;;;;;;0.40;0.20;;;12.60;99.90;;;;;;5032880;28;20391;-74
2021/09/27 05:14:53;;;;;;;0.40;0.28;;;12.60;99.90;;;;;;4970484;28;20389;-75
2021/09/27 05:17:39;;;;;;;0.40;0.30;;;12.60;99.90;;;;;;5009152;28;20398;-75
2021/09/27 05:20:28;;;;;;;0.40;0.30;;;12.50;99.90;;;;;;5033074;28;20395;-75
2021/09/27 05:22:56;;;;;;;0.40;0.20;;;12.60;99.90;;;;;;5033432;28;20388;-74
2021/09/27 05:25:51;;;;;;;0.40;0.30;;;12.60;99.90;;;;;;5032636;28;20667;-75
2021/09/27 05:28:41;;;;;;;0.40;0.20;;;12.60;99.90;;;;;;5026850;28;20437;-75
2021/09/27 05:31:20;;;;;;;0.40;0.20;;;12.60;99.90;;;;;;5032477;28;20387;-77
2021/09/27 05:33:57;;;;;;;0.40;0.20;;;12.80;99.90;;;;;;5035567;28;20416;-77
2021/09/27 05:36:34;;;;;;;0.40;0.20;;;12.70;99.90;;;;;;5037377;28;20526;-77
2021/09/27 05:39:13;;;;;;;0.40;0.30;;;12.60;99.90;;;;;;5033114;28;20399;-76
2021/09/27 05:42:02;;;;;;;0.40;0.20;;;12.60;99.90;;;;;;5033052;28;20379;-76
2021/09/27 05:44:42;;;;;;;0.40;0.30;;;12.70;99.90;;;;;;5031822;28;20383;-73
2021/09/27 05:47:22;;;;;;;0.40;0.30;;;12.80;99.90;;;;;;5014575;28;20406;-73
2021/09/27 05:49:54;;;;;;;0.40;0.20;;;12.80;99.90;;;;;;5032908;28;20426;-74
2021/09/27 05:52:41;;;;;;;0.40;0.30;;;12.70;99.90;;;;;;5031855;28;20403;-74
2021/09/27 05:55:24;;;;;;;0.40;0.30;;;12.80;99.90;;;;;;5031847;28;20431;-74
2021/09/27 05:57:57;;;;;;;0.40;0.20;;;12.80;99.90;;;;;;5032289;28;20732;-74
2021/09/27 06:00:50;;;;;;;0.40;0.30;;;12.80;99.90;;;;;;5032111;28;20383;-74
2021/09/27 06:03:38;;;;;;;0.40;0.20;;;12.90;99.90;;;;;;5031555;28;20858;-74
2021/09/27 06:06:30;;;;;;;0.40;0.20;;;12.80;99.90;;;;;;5032482;28;20390;-74
2021/09/27 06:09:20;;;;;;;0.40;0.20;;;12.90;99.90;;;;;;5042428;28;20390;-74
2021/09/27 06:12:00;;;;;;;0.40;0.30;;;12.90;99.90;;;;;;5032403;28;20379;-74
2021/09/27 06:14:27;;;;;;;0.40;0.30;;;13.00;99.90;;;;;;5013944;28;20421;-74
2021/09/27 06:17:15;;;;;;;0.40;0.30;;;13.00;99.90;;;;;;5040167;28;20471;-74
2021/09/27 06:20:06;;;;;;;0.40;0.20;;;13.10;99.90;;;;;;5040114;28;20383;-74
2021/09/27 06:23:09;;;;;;;0.40;0.20;;;13.20;99.90;;;;;;5041819;28;20457;-75
2021/09/27 06:25:42;;;;;;;0.40;0.30;;;13.20;99.90;;;;;;5041841;28;20411;-74
2021/09/27 06:28:08;;;;;;;1.90;1.00;;;13.20;99.90;;;;;;5044521;28;20731;-75
2021/09/27 06:30:36;;;;;;;0.40;0.20;;;13.10;99.90;;;;;;5044480;28;20398;-75
2021/09/27 06:33:24;;;;;;;0.40;0.20;;;13.20;99.90;;;;;;5040883;28;20379;-75
2021/09/27 06:35:52;;;;;;;0.40;0.30;;;13.30;99.90;;;;;;5024245;28;20407;-75
2021/09/27 06:38:24;;;;;;;0.40;0.20;;;13.40;99.90;;;;;;5039555;28;20387;-75
2021/09/27 06:40:50;;;;;;;0.40;0.30;;;13.40;99.90;;;;;;5051547;28;20464;-75
2021/09/27 06:43:20;;;;;;;0.40;0.25;;;13.40;99.90;;;;;;5051300;28;20381;-75
2021/09/27 06:45:47;;;;;;;0.40;0.30;;;13.40;99.90;;;;;;5051369;28;20503;-76
2021/09/27 06:48:13;;;;;;;0.40;0.20;;;13.50;99.90;;;;;;5051445;28;20389;-75
2021/09/27 06:50:38;;;;;;;0.40;0.30;;;13.50;99.90;;;;;;5033648;28;20488;-75
2021/09/27 06:53:04;;;;;;;0.40;0.20;;;13.60;99.90;;;;;;5049429;28;20812;-75
2021/09/27 06:55:30;;;;;;;0.40;0.30;;;13.70;99.90;;;;;;5042061;28;20485;-75
2021/09/27 06:57:56;;;;;;;0.40;0.30;;;13.90;99.90;;;;;;5042242;28;20727;-75
2021/09/27 07:00:22;;;;;;;0.40;0.30;;;13.90;99.90;;;;;;5038462;28;20387;-75
2021/09/27 07:02:47;;;;;;;0.40;0.30;;;13.90;99.90;;;;;;5020525;28;20381;-75
2021/09/27 07:05:33;;;;;;;0.40;0.30;;;13.90;99.90;;;;;;5033085;28;20467;-74
2021/09/27 07:08:00;;;;;;;0.40;0.40;;;13.90;99.90;;;;;;5051209;28;20802;-74
2021/09/27 07:10:27;;;;;;;0.40;0.30;;;14.00;99.90;;;;;;5032125;28;20389;-73
2021/09/27 07:12:52;;;;;;;0.40;0.20;;;14.00;99.90;;;;;;5050944;28;20741;-74
2021/09/27 07:15:19;;;;;;;0.40;0.30;;;14.20;99.90;;;;;;5050486;28;20405;-73
2021/09/27 07:17:45;;;;;;;0.40;0.20;;;14.20;99.90;;;;;;5051230;28;20447;-73
2021/09/27 07:20:14;;;;;;;0.40;0.20;;;14.30;99.90;;;;;;5050518;28;20381;-74
2021/09/27 07:22:41;;;;;;;0.40;0.30;;;14.40;99.90;;;;;;5051197;28;20388;-74
2021/09/27 07:25:08;;;;;;;0.40;0.30;;;14.60;99.90;;;;;;5051067;28;20394;-74
2021/09/27 07:27:34;;;;;;;0.40;0.20;;;14.70;99.90;;;;;;5050490;28;20507;-74
2021/09/27 07:30:00;;;;;;;0.40;0.20;;;14.80;99.90;;;;;;5051356;28;20547;-74
2021/09/27 07:32:26;;;;;;;0.40;0.30;;;14.90;99.90;;;;;;5050420;28;20468;-73
2021/09/27 07:34:52;;;;;;;0.40;0.28;;;15.00;99.90;;;;;;5050689;28;20389;-74
2021/09/27 07:37:17;;;;;;;0.40;0.20;;;15.10;99.90;;;;;;5051364;28;20733;-74
2021/09/27 07:39:43;;;;;;;0.40;0.30;;;15.20;99.90;;;;;;5037529;28;20393;-74
2021/09/27 07:42:10;;;;;;;0.40;0.30;;;15.20;99.90;;;;;;5055209;28;20373;-74
2021/09/27 07:44:36;;;;;;;0.40;0.30;;;15.30;99.90;;;;;;5054907;28;20377;-74
2021/09/27 07:47:03;;;;;;;0.40;0.30;;;15.40;99.90;;;;;;5037363;28;20396;-74
2021/09/27 07:49:29;;;;;;;0.40;0.30;;;15.50;99.90;;;;;;5036404;28;20715;-74
2021/09/27 07:51:57;;;;;;;0.40;0.23;;;15.50;99.90;;;;;;5037126;28;20900;-74
2021/09/27 07:54:24;;;;;;;0.40;0.30;;;15.60;99.90;;;;;;5036482;28;20397;-74
2021/09/27 07:56:50;;;;;;;0.40;0.30;;;15.70;99.90;;;;;;5054912;28;20420;-74
2021/09/27 07:59:16;;;;;;;0.40;0.20;;;15.70;99.90;;;;;;5054366;28;20931;-74
2021/09/27 08:01:42;;;;;;;0.40;0.20;;;15.80;99.90;;;;;;5054454;28;20373;-74
2021/09/27 08:04:09;;;;;;;0.40;0.20;;;15.90;99.90;;;;;;5054456;28;20872;-75
2021/09/27 08:06:36;;;;;;;0.40;0.20;;;15.90;99.90;;;;;;5052859;28;20438;-75
2021/09/27 08:09:03;;;;;;;0.40;0.20;;;16.10;99.90;;;;;;5034512;28;20374;-74
2021/09/27 08:11:28;;;;;;;0.40;0.20;;;16.20;99.90;;;;;;5016553;28;20379;-74
2021/09/27 08:13:54;;;;;;;0.40;0.20;;;16.30;99.90;;;;;;5016842;28;20398;-74
2021/09/27 08:16:20;;;;;;;0.40;0.30;;;16.40;99.90;;;;;;5033838;28;20410;-74
2021/09/27 08:18:46;;;;;;;0.40;0.20;;;16.60;99.90;;;;;;5034229;28;20386;-74
2021/09/27 08:21:15;;;;;;;0.40;0.20;;;16.70;99.90;;;;;;5034511;28;20398;-74
2021/09/27 08:23:41;;;;;;;0.40;0.20;;;16.70;99.90;;;;;;5034360;28;20453;-73
2021/09/27 08:26:07;;;;;;;0.40;0.20;;;16.80;99.90;;;;;;5034426;28;20402;-74
2021/09/27 08:28:37;;;;;;;0.40;0.20;;;16.90;99.90;;;;;;5033676;28;20392;-73
2021/09/27 08:31:11;;;;;;;0.40;0.30;;;17.00;99.90;;;;;;5034179;28;20433;-74
2021/09/27 08:33:38;;;;;;;0.40;0.20;;;17.10;99.90;;;;;;5033911;28;20390;-73
2021/09/27 08:36:06;;;;;;;0.40;0.30;;;17.20;99.90;;;;;;5033910;28;20514;-73
2021/09/27 08:38:37;;;;;;;0.40;0.20;;;17.30;99.90;;;;;;5033458;28;20438;-74
2021/09/27 08:41:39;;;;;;;0.40;0.20;;;17.40;99.90;;;;;;5034055;28;20433;-73
2021/09/27 08:44:34;;;;;;;0.40;0.20;;;17.50;99.90;;;;;;5015800;28;20491;-74
2021/09/27 08:47:14;;;;;;;0.40;0.20;;;17.60;99.90;;;;;;5033958;28;20886;-73
2021/09/27 08:50:01;;;;;;;0.40;0.20;;;17.60;99.90;;;;;;5033839;28;20386;-74
2021/09/27 08:52:32;;;;;;;0.40;0.30;;;17.80;99.90;;;;;;5033378;28;20387;-74
2021/09/27 08:55:00;;;;;;;0.50;0.50;;;18.20;99.90;;;;;;5015449;28;20387;-74
2021/09/27 08:58:23;;;;;;;0.40;0.30;;;18.30;99.90;;;;;;5015392;28;20407;-74
2021/09/27 09:00:57;;;;;;;0.40;0.30;;;18.30;99.90;;;;;;4972601;28;20392;-74
2021/09/27 09:03:31;;;;;;;0.40;0.20;;;18.30;99.90;;;;;;5015941;28;20449;-74
2021/09/27 09:06:02;;;;;;;0.40;0.30;;;18.30;99.90;;;;;;5033326;28;20422;-74
2021/09/27 09:08:50;;;;;;;0.40;0.20;;;18.40;99.90;;;;;;5048947;28;20747;-74
2021/09/27 09:11:28;;;;;;;0.40;0.30;;;18.50;99.90;;;;;;5052654;28;20499;-74
2021/09/27 09:14:08;;;;;;;0.40;0.20;;;18.80;99.90;;;;;;5053382;28;20382;-74
2021/09/27 09:16:38;;;;;;;0.40;0.20;;;19.00;99.90;;;;;;5034912;28;20816;-74
2021/09/27 09:19:07;;;;;;;0.40;0.30;;;18.90;99.90;;;;;;5035607;28;20753;-74
2021/09/27 09:21:38;;;;;;;0.40;0.20;;;19.00;99.90;;;;;;5052930;28;20381;-75
2021/09/27 09:24:14;;;;;;;0.40;0.20;;;19.10;99.90;;;;;;5053280;28;20389;-75
2021/09/27 09:26:47;;;;;;;0.40;0.20;;;19.20;99.90;;;;;;5052727;28;20805;-74
2021/09/27 09:29:18;;;;;;;0.40;0.20;;;19.30;99.90;;;;;;5053150;28;20394;-74
2021/09/27 09:31:51;;;;;;;0.40;0.20;;;19.30;99.90;;;;;;5053227;28;20382;-74
2021/09/27 09:34:17;;;;;;;0.40;0.20;;;19.50;99.90;;;;;;5052874;28;20389;-74
2021/09/27 09:36:45;;;;;;;0.40;0.30;;;19.50;99.90;;;;;;5052536;28;20496;-74
2021/09/27 09:39:22;;;;;;;0.40;0.30;;;19.60;99.90;;;;;;5053079;28;20385;-74
2021/09/27 09:41:59;;;;;;;0.40;0.20;;;19.70;99.90;;;;;;5035337;28;20746;-74
2021/09/27 09:44:26;;;;;;;0.40;0.30;;;19.80;99.90;;;;;;5052494;28;20378;-75
2021/09/27 09:47:02;;;;;;;0.40;0.30;;;19.70;99.90;;;;;;5052612;28;20406;-74
2021/09/27 09:49:30;;;;;;;0.40;0.20;;;19.80;99.90;;;;;;5052305;28;20374;-74
2021/09/27 09:52:03;;;;;;;0.40;0.20;;;19.90;99.90;;;;;;5034490;28;20385;-74
2021/09/27 09:54:38;;;;;;;0.60;0.40;;;20.00;99.90;;;;;;5052244;28;20381;-74
2021/09/27 09:57:14;;;;;;;0.40;0.20;;;20.20;99.90;;;;;;5052900;28;20416;-74
2021/09/27 09:59:52;;;;;;;0.40;0.30;;;20.30;99.90;;;;;;5051574;28;20496;-74
2021/09/27 10:02:21;;;;;;;0.40;0.30;;;20.40;99.90;;;;;;5052416;28;20845;-74
2021/09/27 10:04:53;;;;;;;0.40;0.20;;;20.50;99.90;;;;;;5052530;28;20384;-74
2021/09/27 10:07:26;;;;;;;0.40;0.30;;;20.70;99.90;;;;;;5045407;28;20910;-74
2021/09/27 10:09:55;;;;;;;0.40;0.20;;;20.80;99.90;;;;;;5032534;28;20488;-74
2021/09/27 10:12:50;;;;;;;0.40;0.30;;;20.80;99.90;;;;;;5031532;28;20868;-74
2021/09/27 10:15:34;;;;;;;0.40;0.20;;;20.80;99.90;;;;;;5032401;28;20403;-73
2021/09/27 10:18:04;;;;;;;0.40;0.30;;;20.70;99.90;;;;;;5032342;28;20399;-74
2021/09/27 10:20:39;;;;;;;0.40;0.20;;;20.70;99.90;;;;;;5031728;28;20452;-74
2021/09/27 10:23:11;;;;;;;0.40;0.30;;;20.80;99.90;;;;;;5032148;28;20391;-73
2021/09/27 10:25:40;;;;;;;0.40;0.30;;;20.80;99.90;;;;;;5013714;28;20413;-74
2021/09/27 10:28:10;;;;;;;0.40;0.30;;;20.70;99.90;;;;;;5014434;28;20453;-74
2021/09/27 10:30:58;;;;;;;0.40;0.30;;;20.70;99.90;;;;;;5031320;28;20786;-74
2021/09/27 10:33:27;;;;;;;0.40;0.20;;;20.90;99.90;;;;;;5031245;28;20379;-73
2021/09/27 10:36:07;;;;;;;0.40;0.20;;;20.90;99.90;;;;;;5031884;28;20741;-73
2021/09/27 10:38:46;;;;;;;0.40;0.20;;;21.10;99.90;;;;;;5013569;28;20395;-74
2021/09/27 10:41:32;;;;;;;0.40;0.30;;;21.20;99.90;;;;;;5031713;28;20892;-74
2021/09/27 10:44:05;;;;;;;0.40;0.20;;;21.30;99.90;;;;;;5031873;28;20379;-74
2021/09/27 10:46:37;;;;;;;0.40;0.20;;;21.70;99.90;;;;;;5031284;28;20415;-75
2021/09/27 10:49:06;;;;;;;0.40;0.30;;;21.50;99.90;;;;;;5031993;28;20575;-73
2021/09/27 10:51:35;;;;;;;0.40;0.20;;;21.70;99.90;;;;;;5031028;28;20394;-74
2021/09/27 10:54:40;;;;;;;0.40;0.20;;;21.80;99.90;;;;;;5031253;28;20387;-73
2021/09/27 10:57:15;;;;;;;0.40;0.30;;;22.10;99.40;;;;;;5022351;28;20848;-74
2021/09/27 10:59:50;;;;;;;0.40;0.20;;;22.00;99.00;;;;;;5031135;28;20379;-72
2021/09/27 11:02:25;;;;;;;0.40;0.20;;;22.10;97.60;;;;;;5031499;28;20475;-72
2021/09/27 11:05:16;;;;;;;0.40;0.30;;;22.00;96.90;;;;;;5014033;28;20388;-72
2021/09/27 11:07:46;;;;;;;0.40;0.30;;;22.10;97.90;;;;;;5033019;28;20385;-72
2021/09/27 11:10:40;;;;;;;0.40;0.20;;;22.30;97.00;;;;;;5033634;28;20477;-72
2021/09/27 11:13:07;;;;;;;0.40;0.30;;;22.30;96.70;;;;;;5050078;28;20865;-72
2021/09/27 11:15:39;;;;;;;0.40;0.30;;;22.50;96.40;;;;;;5050553;28;20401;-73
2021/09/27 11:18:23;;;;;;;0.40;0.30;;;22.50;95.80;;;;;;5051330;28;20738;-73
2021/09/27 11:20:49;;;;;;;0.40;0.20;;;22.50;94.60;;;;;;5050873;28;20480;-72
2021/09/27 11:23:22;;;;;;;0.40;0.20;;;23.20;93.20;;;;;;5051082;28;20472;-73
2021/09/27 11:26:04;;;;;;;0.40;0.30;;;23.20;91.70;;;;;;5050399;28;20389;-74
2021/09/27 11:28:45;;;;;;;0.40;0.30;;;23.90;90.90;;;;;;5050544;28;20378;-72
2021/09/27 11:31:27;;;;;;;0.40;0.30;;;24.50;91.10;;;;;;5051187;28;20377;-73
2021/09/27 11:33:57;;;;;;;0.40;0.28;;;24.60;87.70;;;;;;5049298;28;20505;-74
2021/09/27 11:36:29;;;;;;;0.40;0.30;;;25.10;85.40;;;;;;5028700;28;20865;-73
2021/09/27 11:39:04;;;;;;;0.40;0.30;;;24.70;86.20;;;;;;5046865;28;20425;-73
2021/09/27 11:41:33;;;;;;;0.40;0.20;;;24.20;86.00;;;;;;5043140;28;20417;-73
2021/09/27 11:44:14;;;;;;;0.40;0.20;;;23.60;87.70;;;;;;5032554;28;20375;-74
2021/09/27 11:47:09;;;;;;;0.40;0.20;;;23.30;88.80;;;;;;5027496;28;20421;-74
2021/09/27 11:50:02;;;;;;;0.40;0.20;;;22.70;90.90;;;;;;5037077;28;20414;-74
2021/09/27 11:53:17;;;;;;;0.40;0.20;;;22.60;91.50;;;;;;5048891;28;20739;-74
2021/09/27 11:55:49;;;;;;;0.40;0.30;;;22.40;91.80;;;;;;4971431;28;20435;-74
2021/09/27 11:58:29;;;;;;;0.40;0.30;;;22.20;92.50;;;;;;5050309;28;20397;-74
2021/09/27 12:01:02;;;;;;;0.40;0.30;;;22.10;92.90;;;;;;5050664;28;20397;-74
2021/09/27 12:03:55;;;;;;;0.50;0.50;;;22.00;93.50;;;;;;5049789;28;20369;-74
2021/09/27 12:06:26;;;;;;;0.40;0.20;;;22.10;93.50;;;;;;5050579;28;20742;-74
2021/09/27 12:09:15;;;;;;;0.40;0.20;;;22.00;94.00;;;;;;5025845;28;20386;-74
2021/09/27 12:11:54;;;;;;;0.40;0.30;;;22.10;93.70;;;;;;5049853;28;20476;-74
2021/09/27 12:14:37;;;;;;;0.40;0.30;;;22.30;93.00;;;;;;5050364;28;20722;-74
2021/09/27 12:17:05;;;;;;;0.40;0.20;;;22.60;92.40;;;;;;5050155;28;20965;-74
2021/09/27 12:19:44;;;;;;;0.40;0.30;;;22.30;93.70;;;;;;5042685;28;20388;-73
2021/09/27 12:22:21;;;;;;;0.40;0.20;;;22.40;92.70;;;;;;5039511;28;20408;-74
2021/09/27 12:24:48;;;;;;;0.40;0.20;;;22.40;92.40;;;;;;5046085;28;20451;-74
2021/09/27 12:27:25;;;;;;;0.40;0.30;;;22.40;92.70;;;;;;5044783;28;20440;-73
2021/09/27 12:30:12;;;;;;;0.40;0.20;;;22.30;93.20;;;;;;5046597;28;20369;-74
2021/09/27 12:32:51;;;;;;;0.40;0.30;;;22.40;92.40;;;;;;5044354;28;20720;-72
2021/09/27 12:35:23;;;;;;;0.40;0.30;;;22.10;92.40;;;;;;5053392;28;20397;-72
2021/09/27 12:37:52;;;;;;;0.40;0.20;;;22.50;92.70;;;;;;5032915;28;20490;-72
2021/09/27 12:40:19;;;;;;;0.40;0.30;;;22.60;92.60;;;;;;5041168;28;20387;-72
2021/09/27 12:42:51;;;;;;;0.40;0.20;;;22.70;92.20;;;;;;5028741;28;20458;-71
2021/09/27 12:45:46;;;;;;;0.40;0.20;;;22.60;92.10;;;;;;5046030;28;20409;-72
2021/09/27 12:48:21;;;;;;;0.40;0.20;;;22.70;93.20;;;;;;5042277;28;20385;-72
2021/09/27 12:51:00;;;;;;;0.40;0.20;;;22.50;92.80;;;;;;5038842;28;20398;-72
2021/09/27 12:53:40;;;;;;;0.40;0.20;;;22.40;92.10;;;;;;5033211;28;20387;-72
2021/09/27 12:56:07;;;;;;;0.40;0.30;;;22.30;92.70;;;;;;5033569;28;20422;-72
2021/09/27 12:58:42;;;;;;;0.40;0.30;;;22.50;92.90;;;;;;5033108;28;20398;-72
2021/09/27 13:01:20;;;;;;;0.40;0.30;;;22.40;93.00;;;;;;5033733;28;20394;-73
2021/09/27 13:03:59;;;;;;;0.40;0.30;;;22.50;93.00;;;;;;5033145;28;20449;-73
2021/09/27 13:06:32;;;;;;;0.40;0.20;;;22.60;92.80;;;;;;5033686;28;20383;-74
2021/09/27 13:09:08;;;;;;;0.40;0.30;;;22.60;92.60;;;;;;5033750;28;20391;-74
2021/09/27 13:11:37;;;;;;;0.40;0.30;;;22.60;92.40;;;;;;5032992;28;20379;-74
2021/09/27 13:14:19;;;;;;;0.40;0.30;;;22.40;92.50;;;;;;5033589;28;20413;-73
2021/09/27 13:16:49;;;;;;;0.40;0.30;;;22.30;93.10;;;;;;5032895;28;20403;-74
2021/09/27 13:19:42;;;;;;;0.40;0.30;;;22.20;93.60;;;;;;5033361;28;20740;-74
2021/09/27 13:22:41;;;;;;;0.40;0.30;;;22.10;93.20;;;;;;5033469;28;20445;-74
2021/09/27 13:25:25;;;;;;;0.40;0.30;;;22.20;93.90;;;;;;5025060;28;20398;-74
2021/09/27 13:27:59;;;;;;;0.40;0.20;;;22.30;93.40;;;;;;5032723;28;20391;-73
2021/09/27 13:30:29;;;;;;;0.40;0.30;;;22.20;94.10;;;;;;5033209;28;20386;-73
2021/09/27 13:32:57;;;;;;;0.40;0.20;;;22.20;94.10;;;;;;5032569;28;20420;-74
2021/09/27 13:35:37;;;;;;;0.40;0.30;;;22.20;93.50;;;;;;5031984;28;20795;-74
2021/09/27 13:38:04;;;;;;;0.40;0.20;;;22.10;93.20;;;;;;5033098;28;20387;-73
2021/09/27 13:40:35;;;;;;;0.40;0.20;;;22.10;93.30;;;;;;5032905;28;20388;-74
2021/09/27 13:43:20;;;;;;;0.40;0.20;;;21.90;93.50;;;;;;5033057;28;20395;-74
2021/09/27 13:45:51;;;;;;;0.40;0.30;;;21.80;94.40;;;;;;5051557;28;20414;-73
2021/09/27 13:48:17;;;;;;;0.40;0.30;;;21.80;94.40;;;;;;5034061;28;20481;-73
2021/09/27 13:50:45;;;;;;;0.50;0.40;;;21.90;94.10;;;;;;5051752;28;20535;-74